Time;durP1;ratioP1;P1;durP2;ratioP2;P2;SDS_P1;SDS_P2;PMS_P1;PMS_P2;Temp;Humidity;BMP_temperature;BMP_pressure;BME280_temperature;BME280_humidity;BME280_pressure;Samples;Min_cycle;Max_cycle;Signal;HPM_P1;HPM_P2
2023/03/30 00:01:16;;;;;;;6.80;5.17;;;;;;;6.56;100.00;96047.88;4985317;28;20561;-77
2023/03/30 00:03:44;;;;;;;8.30;7.00;;;;;;;6.59;100.00;96055.13;5008241;28;20901;-76
2023/03/30 00:06:19;;;;;;;5.00;4.60;;;;;;;6.51;100.00;96046.13;5005327;28;20465;-76
2023/03/30 00:08:47;;;;;;;6.30;5.70;;;;;;;6.34;100.00;96015.38;5000616;28;20532;-76
2023/03/30 00:11:16;;;;;;;6.30;5.70;;;;;;;6.40;100.00;96029.91;5013248;28;21370;-76
2023/03/30 00:13:43;;;;;;;6.17;4.73;;;;;;;6.45;100.00;96037.66;5020634;28;20476;-76
2023/03/30 00:16:12;;;;;;;7.20;5.80;;;;;;;6.55;100.00;96054.19;5021788;28;20465;-76
2023/03/30 00:18:44;;;;;;;6.60;6.10;;;;;;;6.24;100.00;96005.16;5001554;28;20438;-76
2023/03/30 00:21:11;;;;;;;8.10;6.63;;;;;;;6.34;100.00;96018.00;5026778;28;20876;-76
2023/03/30 00:23:38;;;;;;;7.63;6.07;;;;;;;6.24;100.00;96007.78;5013361;28;20430;-76
2023/03/30 00:26:06;;;;;;;6.27;5.70;;;;;;;6.17;100.00;95986.47;5014757;28;20493;-76
2023/03/30 00:28:33;;;;;;;8.00;6.63;;;;;;;6.27;100.00;96007.16;5049402;28;20843;-76
2023/03/30 00:31:00;;;;;;;6.03;5.50;;;;;;;6.32;100.00;96009.66;5045091;28;20504;-76
2023/03/30 00:33:28;;;;;;;7.70;6.53;;;;;;;6.23;100.00;95993.88;5059714;28;20438;-76
2023/03/30 00:36:11;;;;;;;7.43;6.73;;;;;;;6.47;100.00;96024.97;5055629;28;20432;-76
2023/03/30 00:38:38;;;;;;;8.50;6.77;;;;;;;6.26;100.00;95994.34;5053764;28;20436;-76
2023/03/30 00:41:05;;;;;;;9.20;6.73;;;;;;;6.33;100.00;96011.22;5055564;28;20543;-76
2023/03/30 00:43:32;;;;;;;7.07;6.37;;;;;;;6.22;100.00;95968.72;5049627;28;20919;-76
2023/03/30 00:45:59;;;;;;;9.67;8.30;;;;;;;6.32;100.00;95980.00;5071620;28;20554;-76
2023/03/30 00:48:30;;;;;;;7.13;6.43;;;;;;;6.22;100.00;95976.59;5041422;28;20444;-76
2023/03/30 00:51:03;;;;;;;9.23;6.77;;;;;;;6.40;100.00;96023.88;5053711;28;20570;-76
2023/03/30 00:53:34;;;;;;;7.00;6.30;;;;;;;6.20;100.00;96012.88;5037248;28;20436;-76
2023/03/30 00:56:03;;;;;;;7.50;6.50;;;;;;;6.02;100.00;95994.78;5033630;28;20465;-76
2023/03/30 00:58:30;;;;;;;7.97;7.17;;;;;;;6.22;100.00;96015.97;5032250;28;20440;-76
2023/03/30 01:01:01;;;;;;;7.33;6.40;;;;;;;6.16;100.00;96011.19;5053506;28;20543;-76
2023/03/30 01:03:31;;;;;;;7.87;6.63;;;;;;;6.15;100.00;96010.41;5049740;28;20909;-76
2023/03/30 01:06:01;;;;;;;8.17;7.30;;;;;;;6.05;100.00;95988.91;5036924;28;20482;-76
2023/03/30 01:08:31;;;;;;;11.20;7.23;;;;;;;5.92;100.00;95966.97;5033666;28;20499;-76
2023/03/30 01:11:00;;;;;;;9.17;7.30;;;;;;;6.11;100.00;95987.69;5044712;28;20578;-76
2023/03/30 01:13:29;;;;;;;7.93;7.13;;;;;;;6.08;100.00;95978.56;5055266;28;20445;-76
2023/03/30 01:16:21;;;;;;;7.50;6.77;;;;;;;6.05;100.00;95983.66;5073416;28;20887;-76
2023/03/30 01:19:06;;;;;;;7.57;6.97;;;;;;;6.01;100.00;95978.25;5091695;28;20419;-76
2023/03/30 01:21:54;;;;;;;9.20;7.33;;;;;;;5.99;100.00;95977.78;5073272;28;20466;-76
2023/03/30 01:25:01;;;;;;;7.67;6.80;;;;;;;5.88;100.00;95960.75;5055661;28;20437;-76
2023/03/30 01:27:47;;;;;;;11.60;7.47;;;;;;;5.99;100.00;95966.50;5053400;28;20432;-76
2023/03/30 01:30:43;;;;;;;11.90;7.47;;;;;;;5.98;100.00;95978.06;5060161;28;20526;-76
2023/03/30 01:33:40;;;;;;;7.50;6.70;;;;;;;5.92;100.00;95969.59;5064214;28;20437;-76
2023/03/30 01:36:39;;;;;;;7.77;7.03;;;;;;;5.89;100.00;95970.16;5055076;28;20439;-76
2023/03/30 01:39:56;;;;;;;7.60;6.07;;;;;;;5.89;100.00;95965.69;5077224;28;21221;-76
2023/03/30 01:42:49;;;;;;;7.97;7.17;;;;;;;5.20;100.00;95847.47;5054449;28;20953;-76
2023/03/30 01:45:21;;;;;;;7.93;6.33;;;;;;;5.70;100.00;95920.56;5060195;28;20986;-76
2023/03/30 01:48:00;;;;;;;10.53;8.20;;;;;;;5.82;100.00;95936.50;5036915;28;20494;-76
2023/03/30 01:50:34;;;;;;;12.70;7.73;;;;;;;5.71;100.00;95919.50;5035946;28;20435;-76
2023/03/30 01:53:10;;;;;;;12.37;8.00;;;;;;;5.65;100.00;95907.59;5063366;28;20489;-76
2023/03/30 01:55:44;;;;;;;7.80;7.07;;;;;;;5.84;100.00;95931.72;5061036;28;20435;-76
2023/03/30 01:58:20;;;;;;;7.70;7.00;;;;;;;5.81;100.00;95921.84;5045224;28;20476;-76
2023/03/30 02:00:49;;;;;;;7.73;6.77;;;;;;;5.60;100.00;95889.38;5047852;28;20882;-76
2023/03/30 02:03:22;;;;;;;9.83;6.97;;;;;;;5.83;100.00;95932.78;5062079;28;20984;-76
2023/03/30 02:05:52;;;;;;;6.90;6.23;;;;;;;5.74;100.00;95915.47;5074408;28;20459;-76
2023/03/30 02:08:24;;;;;;;10.23;7.90;;;;;;;5.82;100.00;95922.59;5068992;28;20470;-76
2023/03/30 02:10:53;;;;;;;8.93;7.43;;;;;;;5.63;100.00;95892.19;5046533;28;20540;-76
2023/03/30 02:13:22;;;;;;;8.50;7.37;;;;;;;5.67;100.00;95905.44;5073048;28;20511;-76
2023/03/30 02:15:55;;;;;;;6.63;6.03;;;;;;;5.86;100.00;95929.56;5074324;28;20431;-76
2023/03/30 02:18:22;;;;;;;7.97;7.17;;;;;;;5.69;100.00;95892.81;5055101;28;20808;-76
2023/03/30 02:20:49;;;;;;;6.93;6.23;;;;;;;5.18;100.00;95814.78;5065263;28;20440;-76
2023/03/30 02:23:20;;;;;;;7.40;6.70;;;;;;;5.65;100.00;95891.88;5056879;28;21008;-77
2023/03/30 02:25:47;;;;;;;9.33;7.30;;;;;;;5.69;100.00;95892.81;5057634;28;20456;-77
2023/03/30 02:28:17;;;;;;;8.23;7.43;;;;;;;5.70;100.00;95896.19;5042847;28;20436;-76
2023/03/30 02:30:45;;;;;;;7.43;6.73;;;;;;;5.77;100.00;95907.78;5060352;28;20479;-76
2023/03/30 02:33:23;;;;;;;7.37;6.67;;;;;;;5.60;100.00;95884.13;5046678;28;20439;-76
2023/03/30 02:35:59;;;;;;;9.27;7.40;;;;;;;5.69;100.00;95900.66;5042556;28;20855;-77
2023/03/30 02:38:36;;;;;;;7.37;6.60;;;;;;;5.52;100.00;95869.16;5046083;28;20449;-76
2023/03/30 02:41:39;;;;;;;6.50;5.90;;;;;;;5.76;100.00;95898.38;5084380;28;20833;-76
2023/03/30 02:44:29;;;;;;;7.80;7.03;;;;;;;5.68;100.00;95898.34;5068687;28;20911;-76
2023/03/30 02:47:05;;;;;;;8.00;6.57;;;;;;;5.50;100.00;95871.31;5047249;28;20469;-75
2023/03/30 02:49:40;;;;;;;9.00;7.40;;;;;;;5.54;100.00;95869.63;5060287;28;21004;-76
2023/03/30 02:52:13;;;;;;;7.20;6.50;;;;;;;5.74;100.00;95903.13;5042273;28;20502;-76
2023/03/30 02:54:56;;;;;;;8.20;7.37;;;;;;;5.57;100.00;95882.13;5044874;28;20433;-76
2023/03/30 02:58:17;;;;;;;9.77;6.67;;;;;;;5.64;100.00;95906.06;5048703;28;20800;-77
2023/03/30 03:00:56;;;;;;;8.47;7.67;;;;;;;5.57;100.00;95906.50;5008820;28;20522;-76
2023/03/30 03:03:37;;;;;;;7.77;6.93;;;;;;;5.54;100.00;95899.25;5042037;28;20443;-76
2023/03/30 03:06:08;;;;;;;7.33;6.57;;;;;;;5.41;100.00;95879.16;5064824;28;21035;-77
2023/03/30 03:08:43;;;;;;;9.90;7.87;;;;;;;5.20;100.00;95844.06;5047590;28;20888;-77
2023/03/30 03:11:13;;;;;;;7.47;5.83;;;;;;;5.40;100.00;95879.47;5048137;28;20518;-76
2023/03/30 03:13:39;;;;;;;7.80;6.70;;;;;;;5.37;100.00;95880.06;5052026;28;21000;-76
2023/03/30 03:16:12;;;;;;;10.27;7.63;;;;;;;5.34;100.00;95858.63;5048543;28;21006;-76
2023/03/30 03:18:51;;;;;;;11.33;7.40;;;;;;;5.48;100.00;95886.59;5060431;28;20475;-76
2023/03/30 03:21:18;;;;;;;10.00;6.77;;;;;;;5.36;100.00;95887.16;5041387;28;20472;-76
2023/03/30 03:23:47;;;;;;;9.27;7.80;;;;;;;5.67;100.00;95896.81;5062435;28;20472;-77
2023/03/30 03:26:17;;;;;;;6.90;5.67;;;;;;;5.53;100.00;95881.19;5051923;28;20471;-77
2023/03/30 03:28:44;;;;;;;8.30;7.30;;;;;;;5.46;100.00;95883.47;5061617;28;20494;-76
2023/03/30 03:31:12;;;;;;;6.73;6.00;;;;;;;5.60;100.00;95892.00;5058553;28;20452;-77
2023/03/30 03:33:39;;;;;;;7.63;6.77;;;;;;;5.33;100.00;95862.31;5064311;28;20443;-76
2023/03/30 03:36:13;;;;;;;7.63;6.50;;;;;;;5.49;100.00;95883.66;5068144;28;20884;-77
2023/03/30 03:38:49;;;;;;;7.37;6.60;;;;;;;5.47;100.00;95875.31;5049536;28;20439;-77
2023/03/30 03:41:16;;;;;;;7.20;6.50;;;;;;;5.24;100.00;95851.03;5058547;28;20460;-77
2023/03/30 03:43:43;;;;;;;10.40;6.80;;;;;;;5.24;100.00;95866.78;5072549;28;20424;-76
2023/03/30 03:46:11;;;;;;;7.63;6.67;;;;;;;5.21;100.00;95858.75;5067347;28;20994;-76
2023/03/30 03:48:39;;;;;;;9.93;6.83;;;;;;;5.25;100.00;95867.53;5054516;28;20443;-77
2023/03/30 03:51:06;;;;;;;7.50;6.80;;;;;;;5.26;100.00;95853.34;5034553;28;20460;-77
2023/03/30 03:53:34;;;;;;;10.57;6.00;;;;;;;5.07;100.00;95844.94;5043707;28;20460;-75
2023/03/30 03:56:05;;;;;;;7.23;6.53;;;;;;;5.20;100.00;95872.91;5059467;28;20424;-77
2023/03/30 03:58:32;;;;;;;7.80;7.00;;;;;;;5.19;100.00;95872.13;5052903;28;20429;-76
2023/03/30 04:01:01;;;;;;;7.73;5.93;;;;;;;5.24;100.00;95879.88;5072197;28;20448;-76
2023/03/30 04:03:28;;;;;;;9.10;6.20;;;;;;;5.25;100.00;95881.41;5041017;28;20433;-77
2023/03/30 04:06:01;;;;;;;6.80;5.57;;;;;;;5.23;100.00;95888.03;5064508;28;20468;-76
2023/03/30 04:08:28;;;;;;;9.67;7.77;;;;;;;4.92;100.00;95840.88;5067684;28;20424;-77
2023/03/30 04:11:08;;;;;;;7.10;6.43;;;;;;;5.00;100.00;95861.13;5062527;28;20466;-76
2023/03/30 04:13:47;;;;;;;11.20;6.83;;;;;;;5.00;100.00;95863.72;5043449;28;20432;-76
2023/03/30 04:16:47;;;;;;;10.77;7.40;;;;;;;5.07;100.00;95871.91;5043496;28;20432;-77
2023/03/30 04:19:53;;;;;;;6.53;5.83;;;;;;;5.08;100.00;95870.88;5032407;28;20432;-76
2023/03/30 04:22:36;;;;;;;7.10;6.00;;;;;;;4.87;100.00;95848.88;5046442;28;20459;-76
2023/03/30 04:25:27;;;;;;;7.40;6.70;;;;;;;5.02;100.00;95858.97;5060655;28;20428;-76
2023/03/30 04:28:31;;;;;;;8.27;7.40;;;;;;;4.60;100.00;95798.22;5028874;28;20436;-76
2023/03/30 04:31:09;;;;;;;7.50;6.73;;;;;;;5.01;100.00;95870.50;5042806;28;20460;-76
2023/03/30 04:33:49;;;;;;;9.97;7.70;;;;;;;4.83;100.00;95829.63;5082142;28;20439;-76
2023/03/30 04:36:37;;;;;;;9.73;6.80;;;;;;;5.36;100.00;95889.00;5041773;28;20435;-77
2023/03/30 04:39:32;;;;;;;9.20;6.20;;;;;;;5.24;100.00;95881.72;5074245;28;20435;-77
2023/03/30 04:42:32;;;;;;;8.53;7.10;;;;;;;4.97;100.00;95862.50;5053623;28;20456;-76
2023/03/30 04:45:19;;;;;;;12.40;8.23;;;;;;;5.02;100.00;95859.72;5064166;28;20928;-76
2023/03/30 04:48:01;;;;;;;7.60;6.50;;;;;;;3.96;100.00;95705.38;5034274;28;20421;-77
2023/03/30 04:50:48;;;;;;;8.03;6.73;;;;;;;4.90;100.00;95874.47;5058522;28;20534;-76
2023/03/30 04:53:49;;;;;;;8.80;8.00;;;;;;;4.70;100.00;95846.94;5043395;28;20436;-77
2023/03/30 04:56:16;;;;;;;6.90;6.30;;;;;;;4.69;100.00;95846.19;5060287;28;20408;-76
2023/03/30 04:59:03;;;;;;;7.83;6.00;;;;;;;4.91;100.00;95876.00;5056577;28;20845;-75
2023/03/30 05:01:56;;;;;;;8.83;7.33;;;;;;;4.82;100.00;95860.25;5037718;28;20468;-77
2023/03/30 05:04:44;;;;;;;8.90;6.63;;;;;;;4.95;100.00;95866.50;5065132;28;20540;-76
2023/03/30 05:07:43;;;;;;;7.90;6.53;;;;;;;4.95;100.00;95861.25;5055891;28;20472;-76
2023/03/30 05:10:26;;;;;;;4.90;4.07;;;;;;;5.16;100.00;95892.94;5062107;28;20452;-76
2023/03/30 05:12:54;;;;;;;8.13;7.00;;;;;;;4.95;100.00;95848.16;5075794;28;20460;-77
2023/03/30 05:15:39;;;;;;;7.60;6.87;;;;;;;5.30;100.00;95883.13;5060756;28;20507;-76
2023/03/30 05:18:24;;;;;;;9.80;7.40;;;;;;;5.12;100.00;95853.47;5043314;28;20946;-77
2023/03/30 05:21:09;;;;;;;7.73;6.73;;;;;;;5.26;100.00;95874.31;5069100;28;20443;-76
2023/03/30 05:24:03;;;;;;;10.37;6.87;;;;;;;5.13;100.00;95855.00;5057409;28;20495;-76
2023/03/30 05:27:03;;;;;;;7.37;6.67;;;;;;;5.07;100.00;95855.44;5061524;28;20828;-76
2023/03/30 05:29:48;;;;;;;8.07;6.33;;;;;;;5.09;100.00;95861.94;5070693;28;20528;-75
2023/03/30 05:32:33;;;;;;;9.20;7.80;;;;;;;5.03;100.00;95857.88;5075077;28;20443;-77
2023/03/30 05:35:18;;;;;;;17.73;8.10;;;;;;;5.04;100.00;95873.31;5064171;28;20443;-76
2023/03/30 05:38:11;;;;;;;8.93;8.03;;;;;;;5.26;100.00;95900.53;5047841;28;20436;-76
2023/03/30 05:40:57;;;;;;;10.60;8.10;;;;;;;5.23;100.00;95898.53;5074940;28;20442;-76
2023/03/30 05:43:48;;;;;;;14.97;9.47;;;;;;;5.18;100.00;95893.41;5050087;28;20451;-76
2023/03/30 05:46:32;;;;;;;10.33;9.27;;;;;;;4.88;100.00;95859.06;5062824;28;20509;-76
2023/03/30 05:49:32;;;;;;;10.43;9.37;;;;;;;5.12;100.00;95890.16;5061969;28;20421;-76
2023/03/30 05:52:06;;;;;;;13.57;9.93;;;;;;;4.75;100.00;95831.88;5061640;28;20645;-76
2023/03/30 05:54:48;;;;;;;11.30;10.10;;;;;;;5.20;100.00;95893.88;5059595;28;20435;-76
2023/03/30 05:57:28;;;;;;;9.37;8.10;;;;;;;5.24;100.00;95882.50;5044471;28;20436;-76
2023/03/30 06:00:21;;;;;;;14.30;9.70;;;;;;;4.89;100.00;95825.78;5047133;28;20813;-76
2023/03/30 06:02:58;;;;;;;16.40;10.00;;;;;;;5.05;100.00;95855.72;5056746;28;20932;-76
2023/03/30 06:05:32;;;;;;;17.10;10.17;;;;;;;5.04;100.00;95851.56;5065717;28;20520;-76
2023/03/30 06:07:59;;;;;;;16.53;11.00;;;;;;;5.16;100.00;95858.88;5058558;28;20467;-76
2023/03/30 06:10:26;;;;;;;18.90;10.27;;;;;;;4.95;100.00;95827.97;5058717;28;20439;-76
2023/03/30 06:12:54;;;;;;;21.83;12.73;;;;;;;5.14;100.00;95835.59;5058894;28;20443;-76
2023/03/30 06:15:37;;;;;;;13.10;11.27;;;;;;;5.42;100.00;95844.00;5049845;28;20487;-75
2023/03/30 06:18:07;;;;;;;18.13;11.30;;;;;;;5.67;100.00;95855.63;5031090;28;20528;-75
2023/03/30 06:20:37;;;;;;;11.30;9.37;;;;;;;5.85;100.00;95870.31;5066551;28;20496;-75
2023/03/30 06:23:04;;;;;;;11.17;9.97;;;;;;;5.78;100.00;95845.63;5063327;28;20468;-75
2023/03/30 06:25:31;;;;;;;11.33;8.43;;;;;;;5.85;100.00;95832.81;5061952;28;20428;-75
2023/03/30 06:27:58;;;;;;;15.30;8.77;;;;;;;5.86;100.00;95811.50;5058269;28;20547;-75
2023/03/30 06:30:25;;;;;;;9.27;8.30;;;;;;;5.90;100.00;95815.13;5043833;28;20462;-75
2023/03/30 06:32:55;;;;;;;16.20;10.00;;;;;;;6.04;100.00;95833.31;5039759;28;20444;-75
2023/03/30 06:35:24;;;;;;;12.37;9.27;;;;;;;5.93;100.00;95822.34;5047572;28;20826;-75
2023/03/30 06:37:52;;;;;;;11.50;8.30;;;;;;;5.78;100.00;95795.78;5048682;28;20552;-75
2023/03/30 06:40:19;;;;;;;10.33;8.67;;;;;;;5.74;100.00;95793.00;5026559;28;20438;-75
2023/03/30 06:42:48;;;;;;;13.23;11.90;;;;;;;5.89;100.00;95831.91;5039293;28;20466;-75
2023/03/30 06:45:41;;;;;;;14.10;9.27;;;;;;;5.69;100.00;95805.50;5047812;28;20425;-75
2023/03/30 06:48:08;;;;;;;14.90;11.17;;;;;;;5.59;100.00;95786.34;5062530;28;20471;-75
2023/03/30 06:50:39;;;;;;;10.33;9.23;;;;;;;5.86;100.00;95805.50;5047019;28;20460;-75
2023/03/30 06:53:12;;;;;;;11.43;9.40;;;;;;;5.68;100.00;95770.63;5061960;28;20412;-75
2023/03/30 06:55:43;;;;;;;10.43;8.90;;;;;;;5.81;100.00;95763.69;5024810;28;20495;-75
2023/03/30 06:58:16;;;;;;;10.97;8.60;;;;;;;5.83;100.00;95725.56;5063429;28;20527;-75
2023/03/30 07:00:43;;;;;;;13.10;10.87;;;;;;;6.03;100.00;95737.31;5055889;28;20543;-75
2023/03/30 07:03:36;;;;;;;13.43;10.07;;;;;;;5.48;100.00;95634.94;5068383;28;20432;-75
2023/03/30 07:06:24;;;;;;;14.13;11.53;;;;;;;6.02;100.00;95693.03;4997738;28;1137810;-75
2023/03/30 07:08:51;;;;;;;14.93;9.60;;;;;;;5.97;100.00;95680.06;5067002;28;20575;-75
2023/03/30 07:11:21;;;;;;;15.47;10.83;;;;;;;6.22;100.00;95718.59;5048181;28;20904;-75
2023/03/30 07:13:49;;;;;;;12.50;9.80;;;;;;;6.31;100.00;95715.97;5039772;28;20433;-75
2023/03/30 07:16:16;;;;;;;14.50;10.27;;;;;;;6.30;100.00;95712.56;5048214;28;20438;-75
2023/03/30 07:18:42;;;;;;;8.83;7.90;;;;;;;6.52;100.00;95727.31;5039204;28;20472;-75
2023/03/30 07:21:09;;;;;;;10.90;9.13;;;;;;;6.69;100.00;95756.16;5073075;28;20444;-75
2023/03/30 07:23:38;;;;;;;8.40;7.57;;;;;;;6.82;100.00;95770.16;5058580;28;20463;-75
2023/03/30 07:26:06;;;;;;;15.43;8.87;;;;;;;6.77;100.00;95765.06;5049880;28;20624;-75
2023/03/30 07:28:39;;;;;;;15.40;8.60;;;;;;;6.50;100.00;95727.63;5060555;28;20440;-76
2023/03/30 07:31:09;;;;;;;13.67;9.30;;;;;;;6.62;100.00;95734.06;5058745;28;20459;-75
2023/03/30 07:33:38;;;;;;;19.70;9.57;;;;;;;6.61;100.00;95722.03;5045435;28;20527;-75
2023/03/30 07:36:07;;;;;;;15.50;9.37;;;;;;;6.81;100.00;95734.44;5055192;28;20453;-75
2023/03/30 07:38:35;;;;;;;16.50;8.80;;;;;;;6.69;100.00;95731.75;5044351;28;20515;-75
2023/03/30 07:41:07;;;;;;;10.90;9.20;;;;;;;6.60;100.00;95723.88;5048200;28;20492;-75
2023/03/30 07:43:34;;;;;;;19.00;9.90;;;;;;;6.57;100.00;95716.66;5042580;28;20444;-75
2023/03/30 07:46:02;;;;;;;12.83;10.43;;;;;;;6.94;100.00;95756.34;5062588;28;20429;-75
2023/03/30 07:48:34;;;;;;;12.63;9.00;;;;;;;6.71;100.00;95738.22;5058842;28;20439;-75
2023/03/30 07:51:06;;;;;;;14.03;9.40;;;;;;;6.56;100.00;95711.72;5057591;28;20505;-75
2023/03/30 07:53:37;;;;;;;21.03;9.87;;;;;;;7.00;100.00;95745.34;5061220;28;20436;-75
2023/03/30 07:56:12;;;;;;;16.07;11.03;;;;;;;6.69;100.00;95708.88;5047480;28;20493;-76
2023/03/30 07:58:44;;;;;;;15.90;9.30;;;;;;;6.66;100.00;95698.19;5057560;28;20894;-76
2023/03/30 08:01:12;;;;;;;17.30;9.70;;;;;;;7.08;100.00;95754.28;5056711;28;20457;-76
2023/03/30 08:03:59;;;;;;;10.63;8.70;;;;;;;7.05;100.00;95763.56;5068806;28;20824;-76
2023/03/30 08:06:29;;;;;;;12.40;9.43;;;;;;;6.76;100.00;95739.88;5046917;28;20816;-75
2023/03/30 08:08:57;;;;;;;16.77;9.90;;;;;;;6.95;100.00;95766.56;5047583;28;20534;-75
2023/03/30 08:11:24;;;;;;;15.77;10.43;;;;;;;6.67;100.00;95734.66;5061289;28;20467;-75
2023/03/30 08:13:50;;;;;;;14.07;10.77;;;;;;;7.00;100.00;95792.66;5040282;28;20462;-75
2023/03/30 08:16:17;;;;;;;13.83;11.07;;;;;;;6.51;100.00;95746.78;5058452;28;20856;-75
2023/03/30 08:18:46;;;;;;;15.50;9.80;;;;;;;6.90;100.00;95800.88;5056483;28;20879;-76
2023/03/30 08:21:12;;;;;;;14.17;10.10;;;;;;;7.07;100.00;95815.78;5068995;28;21028;-75
2023/03/30 08:23:39;;;;;;;55.23;44.47;;;;;;;7.19;100.00;95809.88;5075329;28;20532;-75
2023/03/30 08:26:06;;;;;;;34.63;22.60;;;;;;;7.22;100.00;95817.16;5049168;28;20775;-75
2023/03/30 08:28:33;;;;;;;31.27;25.43;;;;;;;7.26;100.00;95845.13;5062521;28;21061;-75
2023/03/30 08:31:09;;;;;;;31.50;22.83;;;;;;;7.38;100.00;95844.44;5053143;28;20550;-75
2023/03/30 08:33:36;;;;;;;18.60;12.53;;;;;;;7.18;100.00;95830.13;5047816;28;20840;-75
2023/03/30 08:36:03;;;;;;;17.13;13.00;;;;;;;6.98;100.00;95813.22;5067057;28;20467;-75
2023/03/30 08:38:30;;;;;;;13.73;11.30;;;;;;;6.80;100.00;95777.56;5060650;28;20424;-75
2023/03/30 08:40:57;;;;;;;14.43;10.60;;;;;;;7.24;100.00;95834.16;5043505;28;20484;-76
2023/03/30 08:43:42;;;;;;;12.40;10.20;;;;;;;7.24;100.00;95836.00;5071878;28;20424;-76
2023/03/30 08:46:16;;;;;;;19.20;12.73;;;;;;;7.22;100.00;95825.03;5054394;28;20417;-76
2023/03/30 08:48:46;;;;;;;10.77;9.63;;;;;;;7.27;100.00;95807.22;5050972;28;20464;-75
2023/03/30 08:51:19;;;;;;;11.97;9.03;;;;;;;7.38;100.00;95826.03;5071684;28;20444;-76
2023/03/30 08:53:56;;;;;;;13.23;8.17;;;;;;;7.32;100.00;95825.44;5040331;28;20436;-76
2023/03/30 08:56:28;;;;;;;16.23;9.43;;;;;;;7.33;100.00;95819.06;5043321;28;20429;-76
2023/03/30 08:59:24;;;;;;;10.33;8.17;;;;;;;7.33;100.00;95832.22;5069599;28;20424;-76
2023/03/30 09:01:56;;;;;;;8.93;8.10;;;;;;;7.67;100.00;95847.06;5036979;28;20496;-75
2023/03/30 09:04:46;;;;;;;9.20;8.23;;;;;;;7.71;100.00;95847.97;5044234;28;20428;-75
2023/03/30 09:07:20;;;;;;;11.87;9.00;;;;;;;7.56;100.00;95839.84;5066086;28;20468;-75
2023/03/30 09:09:50;;;;;;;8.87;7.87;;;;;;;7.58;100.00;95866.59;5053753;28;20420;-75
2023/03/30 09:12:17;;;;;;;7.97;7.13;;;;;;;7.62;100.00;95870.94;5062422;28;20454;-75
2023/03/30 09:14:50;;;;;;;9.63;7.00;;;;;;;7.81;100.00;95886.28;5059093;28;20441;-75
2023/03/30 09:17:37;;;;;;;8.60;7.30;;;;;;;7.79;100.00;95879.81;5050270;28;20471;-75
2023/03/30 09:20:17;;;;;;;7.53;6.20;;;;;;;7.78;100.00;95865.88;5065483;28;20413;-75
2023/03/30 09:22:44;;;;;;;9.83;7.83;;;;;;;7.68;100.00;95855.72;5056824;28;20441;-75
2023/03/30 09:25:17;;;;;;;6.80;5.87;;;;;;;7.51;100.00;95859.22;5041335;28;20932;-75
2023/03/30 09:27:54;;;;;;;9.30;7.40;;;;;;;7.24;100.00;95802.59;5058253;28;20452;-75
2023/03/30 09:30:27;;;;;;;25.10;22.17;;;;;;;7.28;100.00;95807.97;5057938;28;20470;-75
2023/03/30 09:33:02;;;;;;;14.77;13.33;;;;;;;7.14;100.00;95774.03;5046747;28;20985;-75
2023/03/30 09:35:39;;;;;;;13.53;11.17;;;;;;;7.45;100.00;95794.72;5054207;28;20411;-75
2023/03/30 09:38:12;;;;;;;13.57;12.27;;;;;;;7.68;100.00;95832.81;5043350;28;20889;-75
2023/03/30 09:40:59;;;;;;;14.80;11.80;;;;;;;7.54;100.00;95831.50;5059058;28;20463;-76
2023/03/30 09:43:33;;;;;;;9.40;7.13;;;;;;;7.57;100.00;95836.91;5046110;28;20435;-76
2023/03/30 09:46:06;;;;;;;14.10;8.70;;;;;;;7.93;100.00;95823.22;5038216;28;20631;-76
2023/03/30 09:48:45;;;;;;;6.70;6.00;;;;;;;8.08;100.00;95835.03;5071275;28;20542;-76
2023/03/30 09:51:15;;;;;;;8.30;7.43;;;;;;;8.04;100.00;95828.88;5059793;28;20463;-76
2023/03/30 09:53:44;;;;;;;8.07;5.87;;;;;;;8.00;100.00;95830.56;5062100;28;20990;-76
2023/03/30 09:56:26;;;;;;;10.20;5.90;;;;;;;8.24;100.00;95832.56;5048643;28;21004;-76
2023/03/30 09:58:54;;;;;;;6.63;6.00;;;;;;;7.93;100.00;95802.16;5067079;28;20527;-76
2023/03/30 10:01:33;;;;;;;10.90;6.70;;;;;;;8.16;100.00;95828.94;5074670;28;20447;-76
2023/03/30 10:04:11;;;;;;;9.77;5.87;;;;;;;8.11;100.00;95825.69;5059889;28;20435;-76
2023/03/30 10:06:46;;;;;;;8.47;7.53;;;;;;;8.21;100.00;95820.81;5062373;28;20471;-76
2023/03/30 10:09:13;;;;;;;7.50;6.23;;;;;;;8.11;100.00;95818.56;5068262;28;20427;-76
2023/03/30 10:11:40;;;;;;;8.87;6.20;;;;;;;8.03;100.00;95789.69;5056375;28;20456;-76
2023/03/30 10:14:30;;;;;;;10.20;7.60;;;;;;;8.13;100.00;95790.06;5074477;28;20431;-76
2023/03/30 10:16:58;;;;;;;15.43;9.57;;;;;;;8.32;100.00;95768.53;5074426;28;20420;-76
2023/03/30 10:19:25;;;;;;;8.93;6.67;;;;;;;8.69;100.00;95803.66;5047658;28;21007;-76
2023/03/30 10:21:56;;;;;;;10.93;7.07;;;;;;;8.76;100.00;95814.44;5074264;28;20468;-76
2023/03/30 10:24:23;;;;;;;6.70;5.87;;;;;;;8.83;100.00;95817.31;5056203;28;20438;-76
2023/03/30 10:26:54;;;;;;;8.83;6.33;;;;;;;8.83;100.00;95812.03;5068746;28;20436;-76
2023/03/30 10:29:24;;;;;;;9.63;6.50;;;;;;;8.76;100.00;95803.13;5051010;28;20540;-75
2023/03/30 10:31:57;;;;;;;9.10;7.03;;;;;;;8.76;100.00;95805.75;5063216;28;20454;-75
2023/03/30 10:34:39;;;;;;;10.23;5.43;;;;;;;8.85;100.00;95796.66;5074187;28;20842;-76
2023/03/30 10:37:12;;;;;;;6.10;5.40;;;;;;;9.01;100.00;95811.84;5074117;28;20474;-76
2023/03/30 10:39:42;;;;;;;5.40;4.90;;;;;;;8.64;100.00;95743.25;5080137;28;20881;-76
2023/03/30 10:42:16;;;;;;;12.40;6.57;;;;;;;9.17;100.00;95808.22;5059325;28;20460;-76
2023/03/30 10:44:49;;;;;;;4.47;3.97;;;;;;;9.24;100.00;95806.91;5052535;28;20449;-76
2023/03/30 10:47:21;;;;;;;5.93;3.83;;;;;;;9.36;100.00;95776.03;5063094;28;20460;-76
2023/03/30 10:50:27;;;;;;;4.40;3.60;;;;;;;9.60;100.00;95753.31;5045639;28;20468;-76
2023/03/30 10:52:56;;;;;;;10.50;5.60;;;;;;;9.79;100.00;95745.59;5047730;28;20432;-76
2023/03/30 10:55:32;;;;;;;7.60;4.27;;;;;;;9.94;100.00;95752.78;5060143;28;20429;-76
2023/03/30 10:58:14;;;;;;;3.53;3.00;;;;;;;9.97;100.00;95744.19;5062586;28;20523;-76
2023/03/30 11:00:59;;;;;;;4.83;3.20;;;;;;;10.09;100.00;95753.94;5073317;28;20535;-76
2023/03/30 11:03:31;;;;;;;4.27;3.30;;;;;;;10.15;100.00;95757.91;5053739;28;20437;-76
2023/03/30 11:06:05;;;;;;;3.70;2.90;;;;;;;9.84;100.00;95702.34;5046474;28;20435;-76
2023/03/30 11:08:36;;;;;;;7.17;3.10;;;;;;;10.04;100.00;95725.16;5062549;28;20451;-76
2023/03/30 11:11:04;;;;;;;4.53;4.10;;;;;;;10.10;100.00;95733.59;5042948;28;20471;-76
2023/03/30 11:13:38;;;;;;;6.10;3.30;;;;;;;10.29;100.00;95771.50;5063298;28;20479;-75
2023/03/30 11:16:20;;;;;;;3.67;2.30;;;;;;;10.34;100.00;95767.84;5056621;28;20463;-76
2023/03/30 11:18:55;;;;;;;5.63;2.70;;;;;;;10.39;100.00;95775.53;5052021;28;20945;-76
2023/03/30 11:21:44;;;;;;;5.03;2.40;;;;;;;10.49;100.00;95751.25;5046499;28;20452;-75
2023/03/30 11:24:13;;;;;;;3.43;2.20;;;;;;;10.63;100.00;95756.13;5041992;28;20437;-76
2023/03/30 11:26:48;;;;;;;5.10;1.90;;;;;;;10.62;100.00;95717.56;5062304;28;20968;-76
2023/03/30 11:29:46;;;;;;;7.37;2.23;;;;;;;10.94;100.00;95756.13;5049334;28;20539;-76
2023/03/30 11:32:36;;;;;;;3.60;1.90;;;;;;;10.86;100.00;95786.16;5055810;28;20472;-76
2023/03/30 11:35:34;;;;;;;3.93;2.00;;;;;;;10.78;100.00;95778.38;5058570;28;20472;-76
2023/03/30 11:38:11;;;;;;;3.63;1.90;;;;;;;10.89;100.00;95784.72;5027873;28;20467;-76
2023/03/30 11:41:03;;;;;;;6.57;6.07;;;;;;;10.75;100.00;95779.06;5059994;28;20479;-76
2023/03/30 11:43:30;;;;;;;2.60;1.80;;;;;;;10.51;100.00;95741.09;5043145;28;20942;-76
2023/03/30 11:46:02;;;;;;;3.70;1.73;;;;;;;10.80;100.00;95792.03;5071312;28;20511;-76
2023/03/30 11:48:48;;;;;;;3.30;3.00;;;;;;;10.84;100.00;95755.88;5072663;28;20471;-76
2023/03/30 11:51:37;;;;;;;2.33;2.13;;;;;;;11.34;100.00;95781.59;5061289;28;20530;-76
2023/03/30 11:54:19;;;;;;;3.70;2.40;;;;;;;11.18;100.00;95752.53;5057769;28;20441;-76
2023/03/30 11:56:59;;;;;;;2.70;1.70;;;;;;;11.34;100.00;95778.19;5041041;28;20498;-76
2023/03/30 11:59:53;;;;;;;6.20;2.30;;;;;;;11.15;100.00;95763.78;5062063;28;20439;-76
2023/03/30 12:02:55;;;;;;;4.53;2.53;;;;;;;11.25;100.00;95791.63;5067548;28;21091;-76
2023/03/30 12:05:44;;;;;;;2.93;2.73;;;;;;;11.15;100.00;95779.69;5052937;28;20439;-76
2023/03/30 12:08:48;;;;;;;3.50;3.20;;;;;;;11.28;100.00;95793.56;5065094;28;20993;-76
2023/03/30 12:11:24;;;;;;;5.87;2.90;;;;;;;10.98;100.00;95764.16;5064141;28;20467;-76